Time;durP1;ratioP1;P1;durP2;ratioP2;P2;SDS_P1;SDS_P2;PMS_P1;PMS_P2;Temp;Humidity;BMP_temperature;BMP_pressure;BME280_temperature;BME280_humidity;BME280_pressure;Samples;Min_cycle;Max_cycle;Signal;HPM_P1;HPM_P2
2022/10/07 00:02:14;;;;;;;23.77;7.57;;;;;;;10.08;83.37;102391.44;5073644;28;20049;-60
2022/10/07 00:04:44;;;;;;;27.35;8.80;;;;;;;10.09;83.63;102393.13;5067810;28;20094;-59
2022/10/07 00:07:13;;;;;;;23.58;9.18;;;;;;;10.06;83.78;102391.56;5075964;28;20051;-59
2022/10/07 00:09:40;;;;;;;25.42;9.38;;;;;;;10.05;84.42;102389.84;5075680;28;20048;-59
2022/10/07 00:12:06;;;;;;;33.85;9.75;;;;;;;10.01;84.32;102390.19;5072238;28;20047;-59
2022/10/07 00:14:33;;;;;;;40.85;11.60;;;;;;;10.06;84.24;102385.38;5075646;28;20044;-60
2022/10/07 00:17:00;;;;;;;28.63;10.32;;;;;;;9.99;84.65;102387.66;5068027;28;20045;-59
2022/10/07 00:19:27;;;;;;;28.98;10.75;;;;;;;10.03;84.50;102385.63;5092505;28;20047;-60
2022/10/07 00:21:53;;;;;;;30.80;11.05;;;;;;;10.02;84.85;102378.63;5088524;28;20512;-61
2022/10/07 00:24:20;;;;;;;41.38;11.93;;;;;;;9.95;84.84;102373.78;5093955;28;20048;-60
2022/10/07 00:26:47;;;;;;;33.72;11.63;;;;;;;9.96;85.17;102367.50;5091350;28;20036;-61
2022/10/07 00:29:13;;;;;;;31.58;11.40;;;;;;;9.90;85.11;102370.59;5095904;28;20048;-60
2022/10/07 00:31:40;;;;;;;31.20;10.52;;;;;;;9.82;85.43;102369.44;5091223;28;20048;-61
2022/10/07 00:34:10;;;;;;;35.35;11.52;;;;;;;9.99;85.43;102371.75;5096152;28;20413;-60
2022/10/07 00:36:37;;;;;;;34.85;10.48;;;;;;;10.02;84.92;102366.19;5091421;28;20500;-61
2022/10/07 00:39:09;;;;;;;40.83;10.45;;;;;;;9.98;85.00;102370.03;5091104;28;20040;-60
2022/10/07 00:41:38;;;;;;;29.15;9.98;;;;;;;9.91;84.38;102366.13;5094734;28;20135;-60
2022/10/07 00:44:34;;;;;;;32.58;10.73;;;;;;;9.92;84.81;102357.25;5090963;28;20044;-60
2022/10/07 00:47:23;;;;;;;29.67;10.05;;;;;;;9.87;85.38;102354.06;5095410;28;20123;-60
2022/10/07 00:50:00;;;;;;;31.42;9.70;;;;;;;9.90;84.94;102362.66;5090734;28;20083;-60
2022/10/07 00:52:31;;;;;;;39.47;9.68;;;;;;;9.88;85.35;102358.44;4971659;28;20044;-59
2022/10/07 00:55:03;;;;;;;28.98;8.82;;;;;;;9.81;85.19;102347.41;5087746;28;20076;-60
2022/10/07 00:57:30;;;;;;;;;;;;;;;9.71;85.88;102343.69;5095742;28;20128;-59
2022/10/07 00:59:58;;;;;;;29.05;8.20;;;;;;;9.74;86.20;102346.16;5090758;28;19923;-60
2022/10/07 01:02:26;;;;;;;28.38;8.25;;;;;;;9.73;85.94;102345.31;5095251;28;20078;-59
2022/10/07 01:04:57;;;;;;;29.85;7.80;;;;;;;9.74;86.23;102344.34;5090103;28;20036;-60
2022/10/07 01:07:26;;;;;;;24.85;7.70;;;;;;;9.75;86.39;102342.53;5095167;28;20036;-60
2022/10/07 01:09:54;;;;;;;22.08;7.13;;;;;;;9.73;86.41;102332.06;5087462;28;20104;-59
2022/10/07 01:15:23;;;;;;;29.73;7.90;;;;;;;9.72;86.71;102326.88;5106536;27;20372;-58
2022/10/07 01:18:03;;;;;;;23.33;6.78;;;;;;;9.72;86.41;102330.34;5109520;28;20055;-58
2022/10/07 01:23:45;;;;;;;26.15;6.82;;;;;;;9.72;86.30;102318.91;5110134;27;20350;-59
2022/10/07 01:26:50;;;;;;;28.95;7.00;;;;;;;9.59;86.60;102321.59;5103370;28;20134;-60
2022/10/07 01:29:27;;;;;;;23.73;7.35;;;;;;;9.65;86.74;102321.13;5110215;28;20510;-60
2022/10/07 01:32:03;;;;;;;24.25;6.32;;;;;;;9.57;86.64;102311.09;5106113;28;20130;-59
2022/10/07 01:34:33;;;;;;;27.08;7.00;;;;;;;9.55;87.00;102312.13;5110707;28;20044;-60
2022/10/07 01:37:01;;;;;;;17.83;6.28;;;;;;;9.40;87.57;102307.00;5106283;28;20050;-60
2022/10/07 01:39:39;;;;;;;25.73;6.97;;;;;;;9.47;87.67;102299.44;5109893;28;20070;-61
2022/10/07 01:42:08;;;;;;;22.60;6.75;;;;;;;9.52;87.33;102302.63;5106103;28;20046;-59
2022/10/07 01:44:38;;;;;;;24.45;6.30;;;;;;;9.49;87.27;102297.53;5106911;28;20040;-59
2022/10/07 01:47:05;;;;;;;21.00;6.13;;;;;;;9.50;87.08;102298.41;5110671;28;20052;-60
2022/10/07 01:49:33;;;;;;;27.98;6.55;;;;;;;9.46;87.40;102295.13;5105662;28;20054;-60
2022/10/07 01:55:19;;;;;;;21.35;6.45;;;;;;;9.39;87.49;102284.09;5106222;27;20090;-61
2022/10/07 01:58:09;;;;;;;20.55;6.05;;;;;;;9.45;87.55;102282.81;5108915;28;20052;-60
2022/10/07 02:00:43;;;;;;;21.50;5.93;;;;;;;9.41;87.13;102284.84;5107942;28;20048;-60
2022/10/07 02:03:51;;;;;;;28.88;6.07;;;;;;;9.46;87.34;102278.38;5110416;28;20169;-60
2022/10/07 02:06:39;;;;;;;16.17;5.63;;;;;;;9.46;86.87;102270.41;5105898;28;20055;-59
2022/10/07 02:09:17;;;;;;;21.40;6.10;;;;;;;9.36;87.10;102263.13;5110197;28;20040;-59
2022/10/07 02:11:56;;;;;;;20.88;5.55;;;;;;;9.37;87.13;102261.34;5106153;28;20070;-60
2022/10/07 02:14:37;;;;;;;18.80;5.60;;;;;;;9.30;87.53;102254.78;5110488;28;20044;-60
2022/10/07 02:17:13;;;;;;;20.85;6.60;;;;;;;9.30;87.07;102258.28;5103183;28;20036;-61
2022/10/07 02:19:47;;;;;;;14.25;5.50;;;;;;;9.31;87.19;102261.75;5110167;28;20055;-60
2022/10/07 02:22:16;;;;;;;17.98;5.57;;;;;;;9.33;87.00;102257.19;5104888;28;20513;-60
2022/10/07 02:24:46;;;;;;;17.83;5.55;;;;;;;9.30;87.08;102254.78;5109500;28;20043;-60
2022/10/07 02:27:18;;;;;;;21.10;5.63;;;;;;;9.34;87.03;102253.59;5104832;28;20245;-60
2022/10/07 02:29:52;;;;;;;21.80;5.90;;;;;;;9.33;87.07;102252.78;5108599;28;20065;-60
2022/10/07 02:32:21;;;;;;;21.80;5.40;;;;;;;9.30;87.35;102246.84;5105701;28;20043;-60
2022/10/07 02:34:56;;;;;;;26.35;5.80;;;;;;;9.31;86.88;102237.94;5107032;28;20123;-60
2022/10/07 02:37:29;;;;;;;14.80;5.47;;;;;;;9.30;87.31;102236.25;5108574;28;20055;-61
2022/10/07 02:39:57;;;;;;;23.23;6.22;;;;;;;9.30;87.24;102236.25;5105599;28;20123;-60
2022/10/07 02:42:54;;;;;;;24.98;5.60;;;;;;;9.25;87.25;102227.78;5109619;28;20040;-60
2022/10/07 02:45:30;;;;;;;27.85;5.60;;;;;;;9.27;87.11;102231.16;5109544;28;20112;-60
2022/10/07 02:48:03;;;;;;;17.70;5.68;;;;;;;9.36;86.92;102234.00;5104637;28;20089;-60
2022/10/07 02:50:38;;;;;;;17.98;4.93;;;;;;;9.32;86.52;102221.09;5106395;28;20392;-60
2022/10/07 02:53:06;;;;;;;19.70;4.97;;;;;;;9.38;86.27;102229.44;5001257;28;20055;-60
2022/10/07 02:55:34;;;;;;;20.85;6.28;;;;;;;9.20;86.65;102223.66;5104912;28;20067;-60
2022/10/07 02:58:06;;;;;;;18.35;5.30;;;;;;;9.05;87.69;102229.19;5109752;28;20046;-60
2022/10/07 03:00:38;;;;;;;21.75;5.65;;;;;;;9.08;87.88;102224.53;5105004;28;20044;-60
2022/10/07 03:03:06;;;;;;;;;;;;;;;9.15;87.11;102230.22;5108536;28;20036;-60
2022/10/07 03:05:54;;;;;;;17.75;5.15;;;;;;;9.21;86.50;102220.03;5090456;28;19927;-61
2022/10/07 03:08:22;;;;;;;16.52;5.32;;;;;;;9.32;86.34;102219.28;5095593;28;20051;-60
2022/10/07 03:10:50;;;;;;;22.08;5.78;;;;;;;9.29;86.63;102206.25;5091614;28;20484;-60
2022/10/07 03:13:17;;;;;;;23.13;5.82;;;;;;;9.30;86.55;102204.47;5095678;28;20496;-60
2022/10/07 03:15:50;;;;;;;17.98;5.18;;;;;;;9.20;86.37;102210.44;5091562;28;20052;-63
2022/10/07 03:18:25;;;;;;;21.55;5.00;;;;;;;9.34;85.69;102198.00;5095281;28;20048;-60
2022/10/07 03:21:00;;;;;;;17.33;5.03;;;;;;;9.21;86.10;102195.38;5088279;28;20101;-60
2022/10/07 03:23:28;;;;;;;22.13;5.43;;;;;;;9.25;86.19;102190.72;5095135;28;20062;-60
2022/10/07 03:25:57;;;;;;;18.25;5.75;;;;;;;9.28;85.86;102194.00;5092407;28;20040;-60
2022/10/07 03:28:26;;;;;;;28.48;5.95;;;;;;;9.34;85.35;102195.34;5095199;28;20040;-60
2022/10/07 03:30:53;;;;;;;33.08;5.88;;;;;;;9.26;85.50;102193.25;5092446;28;20465;-60
2022/10/07 03:33:23;;;;;;;14.18;5.15;;;;;;;9.25;85.12;102188.91;5094670;28;20086;-60
2022/10/07 03:35:50;;;;;;;18.48;5.70;;;;;;;9.15;85.90;102194.03;5091884;28;20048;-60
2022/10/07 03:38:17;;;;;;;22.08;5.70;;;;;;;9.06;85.69;102191.16;5090337;28;20040;-60
2022/10/07 03:40:44;;;;;;;16.77;5.38;;;;;;;9.00;86.35;102187.16;5095389;28;20062;-60
2022/10/07 03:43:11;;;;;;;16.52;5.32;;;;;;;8.96;86.29;102181.22;5090623;28;20079;-60
2022/10/07 03:45:43;;;;;;;23.55;6.28;;;;;;;9.07;85.70;102183.13;5094950;28;20130;-60
2022/10/07 03:48:10;;;;;;;;;;;;;;;9.00;85.59;102184.50;5091086;28;20040;-60
2022/10/07 03:50:37;;;;;;;16.75;5.28;;;;;;;9.00;85.43;102181.84;5064176;28;19926;-61
2022/10/07 03:53:04;;;;;;;20.75;5.80;;;;;;;9.01;85.64;102187.03;4994645;28;20512;-60
2022/10/07 03:55:30;;;;;;;20.67;6.03;;;;;;;8.80;86.26;102186.78;5095160;28;20046;-60
2022/10/07 03:57:57;;;;;;;15.98;5.07;;;;;;;8.89;86.18;102184.41;5089991;28;20048;-61
2022/10/07 04:00:26;;;;;;;31.15;6.47;;;;;;;8.92;86.04;102186.84;5094595;28;20047;-60
2022/10/07 04:02:55;;;;;;;18.98;5.57;;;;;;;8.83;86.51;102180.41;5091045;28;20527;-60
2022/10/07 04:05:23;;;;;;;24.92;5.72;;;;;;;8.80;86.54;102176.19;5094171;28;20044;-60
2022/10/07 04:07:51;;;;;;;22.73;5.95;;;;;;;8.71;86.39;102170.66;5090386;28;20590;-60
2022/10/07 04:10:19;;;;;;;25.50;6.50;;;;;;;8.82;86.39;102174.28;5090456;28;20485;-60
2022/10/07 04:12:48;;;;;;;18.13;5.68;;;;;;;8.89;85.55;102171.19;5094946;28;20052;-60
2022/10/07 04:15:15;;;;;;;21.55;5.40;;;;;;;8.77;86.28;102171.09;5088551;28;20050;-60
2022/10/07 04:17:46;;;;;;;25.48;5.88;;;;;;;8.75;86.74;102167.72;5093720;28;20036;-60
2022/10/07 04:20:16;;;;;;;25.25;5.55;;;;;;;8.66;86.73;102165.72;5081615;28;20044;-60
2022/10/07 04:22:42;;;;;;;19.08;5.80;;;;;;;8.81;86.63;102163.78;5073948;28;20052;-60
2022/10/07 04:25:42;;;;;;;26.88;6.00;;;;;;;8.71;86.84;102163.56;5068712;28;20048;-60
2022/10/07 04:28:02;;;;;;;25.35;5.78;;;;;;;8.73;86.38;102164.34;5074030;28;20076;-60
2022/10/07 04:30:33;;;;;;;17.38;5.30;;;;;;;8.76;86.65;102161.47;5073558;28;20049;-59
2022/10/07 04:33:01;;;;;;;23.23;5.82;;;;;;;8.80;86.50;102165.59;5069924;28;20055;-60
2022/10/07 04:35:29;;;;;;;29.05;6.00;;;;;;;8.74;86.88;102159.88;5073913;28;20498;-60
2022/10/07 04:37:57;;;;;;;20.60;5.25;;;;;;;8.72;86.50;102165.28;5069102;28;20060;-61
2022/10/07 04:40:26;;;;;;;16.85;5.53;;;;;;;8.65;86.75;102159.56;5072511;28;20043;-60
2022/10/07 04:43:26;;;;;;;30.35;5.68;;;;;;;8.68;87.01;102153.22;5064745;28;20060;-60
2022/10/07 04:45:40;;;;;;;28.63;5.75;;;;;;;8.70;86.70;102158.41;5093465;28;20040;-60
2022/10/07 04:48:08;;;;;;;18.67;5.57;;;;;;;8.69;86.65;102157.53;5089274;28;20278;-60
2022/10/07 04:50:37;;;;;;;22.63;6.78;;;;;;;8.50;86.97;102147.41;5063560;28;20058;-61
2022/10/07 04:53:06;;;;;;;21.17;5.43;;;;;;;8.60;86.72;102139.66;5002157;28;20556;-61
2022/10/07 04:55:38;;;;;;;17.48;5.53;;;;;;;8.63;86.74;102144.75;5093717;28;20036;-60
2022/10/07 04:58:06;;;;;;;28.15;6.28;;;;;;;8.56;86.69;102143.50;5089224;28;20467;-60
2022/10/07 05:00:34;;;;;;;22.98;5.95;;;;;;;8.65;86.82;102148.97;5090197;28;20101;-60
2022/10/07 05:03:02;;;;;;;17.15;5.43;;;;;;;8.64;86.69;102143.78;5092191;28;20072;-60
2022/10/07 05:05:29;;;;;;;25.30;5.28;;;;;;;8.61;86.77;102139.56;5088601;28;20040;-60
2022/10/07 05:07:55;;;;;;;17.67;5.78;;;;;;;8.50;87.43;102138.63;5093181;28;20041;-60
2022/10/07 05:10:24;;;;;;;22.00;6.05;;;;;;;8.48;87.34;102138.75;5088812;28;20052;-60
2022/10/07 05:12:51;;;;;;;18.55;5.40;;;;;;;8.54;87.45;102138.31;5093654;28;20097;-60
2022/10/07 05:15:22;;;;;;;21.83;5.38;;;;;;;8.61;87.16;102136.94;5086156;28;20044;-60
2022/10/07 05:17:49;;;;;;;19.73;5.65;;;;;;;8.68;86.69;102139.13;5093340;28;20494;-60
2022/10/07 05:20:15;;;;;;;17.70;5.60;;;;;;;8.65;86.83;102132.25;5088802;28;20588;-60
2022/10/07 05:22:42;;;;;;;25.33;5.68;;;;;;;8.55;86.52;102132.06;5092037;28;20054;-60
2022/10/07 05:25:09;;;;;;;18.77;5.57;;;;;;;8.53;86.87;102122.53;5088760;28;20044;-61
2022/10/07 05:27:37;;;;;;;20.77;5.38;;;;;;;8.34;87.13;102129.06;5092589;28;20447;-60
2022/10/07 05:30:06;;;;;;;22.13;5.50;;;;;;;8.27;87.59;102133.09;5087464;28;20062;-60
2022/10/07 05:32:33;;;;;;;19.80;5.53;;;;;;;8.18;88.34;102120.50;5090361;28;20494;-60
2022/10/07 05:35:00;;;;;;;19.65;6.30;;;;;;;8.21;88.39;102125.59;5093202;28;20090;-60
2022/10/07 05:37:27;;;;;;;23.13;6.05;;;;;;;8.34;87.68;102117.66;5088775;28;20127;-60
2022/10/07 05:39:54;;;;;;;20.63;6.57;;;;;;;8.20;88.08;102121.22;5092590;28;20058;-60
2022/10/07 05:42:21;;;;;;;20.70;5.35;;;;;;;8.32;87.95;102120.41;5088689;28;20528;-60
2022/10/07 05:44:53;;;;;;;26.17;5.90;;;;;;;8.26;87.81;102115.53;5092732;28;20048;-60
2022/10/07 05:47:20;;;;;;;20.05;5.85;;;;;;;8.27;87.55;102111.94;5088793;28;20047;-61
2022/10/07 05:49:48;;;;;;;18.20;6.25;;;;;;;8.35;88.02;102120.19;5089354;28;20055;-60
2022/10/07 05:52:15;;;;;;;18.23;5.80;;;;;;;8.43;87.38;102117.88;4971891;28;20066;-61
2022/10/07 05:54:43;;;;;;;22.13;5.55;;;;;;;8.41;87.14;102116.28;5086712;28;20079;-60
2022/10/07 05:57:11;;;;;;;35.60;6.07;;;;;;;8.36;87.45;102108.66;5092879;28;20075;-61
2022/10/07 05:59:41;;;;;;;20.45;6.43;;;;;;;8.36;87.72;102111.28;5088080;28;20051;-60
2022/10/07 06:02:17;;;;;;;22.27;5.72;;;;;;;8.36;87.36;102110.47;5093096;28;20135;-60
2022/10/07 06:04:46;;;;;;;19.88;6.10;;;;;;;8.46;86.99;102111.56;5084424;28;20048;-59
2022/10/07 06:07:14;;;;;;;20.38;5.93;;;;;;;8.42;87.68;102105.63;5092695;28;20261;-59
2022/10/07 06:15:20;;;;;;;21.65;5.75;;;;;;;8.50;87.26;102113.03;5087953;28;20366;-59
2022/10/07 06:17:48;;;;;;;18.90;5.30;;;;;;;8.51;87.21;102109.41;5092907;28;20052;-59
2022/10/07 06:20:17;;;;;;;25.70;5.75;;;;;;;8.60;87.08;102105.28;5081702;28;20568;-59
2022/10/07 06:22:45;;;;;;;18.17;5.82;;;;;;;8.52;86.65;102105.00;5073925;28;20049;-59
2022/10/07 06:25:13;;;;;;;23.85;5.75;;;;;;;8.63;86.82;102105.06;5067605;28;20336;-60
2022/10/07 06:27:41;;;;;;;25.92;5.25;;;;;;;8.67;86.62;102103.91;5072360;28;20397;-59
2022/10/07 06:30:09;;;;;;;22.60;6.25;;;;;;;8.53;87.38;102101.38;5067539;28;20052;-60
2022/10/07 06:32:36;;;;;;;18.42;5.72;;;;;;;8.69;86.56;102095.84;5072317;28;20044;-59
2022/10/07 06:35:03;;;;;;;19.20;5.93;;;;;;;8.52;86.87;102097.06;5068141;28;20068;-60
2022/10/07 06:37:31;;;;;;;15.82;5.28;;;;;;;8.53;87.44;102101.38;5068542;28;20052;-60
2022/10/07 06:40:00;;;;;;;26.77;6.68;;;;;;;8.45;87.65;102100.09;5073032;28;20520;-59
2022/10/07 06:42:30;;;;;;;19.08;5.35;;;;;;;8.54;87.00;102106.56;5071540;28;20043;-60
2022/10/07 06:45:17;;;;;;;18.75;5.43;;;;;;;8.61;87.29;102104.34;5092397;28;20036;-59
2022/10/07 06:47:44;;;;;;;24.48;5.53;;;;;;;8.66;86.95;102104.88;5091437;28;20135;-60
2022/10/07 06:50:11;;;;;;;25.48;6.15;;;;;;;8.65;86.60;102106.66;5096048;28;20047;-59
2022/10/07 06:52:38;;;;;;;19.60;6.13;;;;;;;8.70;87.01;102108.16;4963171;28;20043;-59
2022/10/07 06:55:08;;;;;;;21.35;6.28;;;;;;;8.73;86.79;102110.56;5096042;28;20047;-59
2022/10/07 06:57:35;;;;;;;21.15;6.10;;;;;;;8.84;86.41;102107.97;5092473;28;20048;-61
2022/10/07 07:00:19;;;;;;;19.33;5.72;;;;;;;8.85;86.45;102112.34;5095182;28;20124;-62
2022/10/07 07:02:47;;;;;;;24.75;6.15;;;;;;;8.87;86.62;102112.22;5093456;28;20703;-62
2022/10/07 07:05:14;;;;;;;21.83;5.90;;;;;;;8.86;86.41;102111.41;5091737;28;20051;-62
2022/10/07 07:07:43;;;;;;;18.73;6.13;;;;;;;8.86;86.89;102110.53;5092079;28;20096;-61
2022/10/07 07:10:10;;;;;;;19.90;6.13;;;;;;;9.00;86.56;102110.38;5101693;28;20040;-60
2022/10/07 07:12:40;;;;;;;30.40;6.47;;;;;;;9.10;85.68;102107.94;5118234;28;20508;-61
2022/10/07 07:15:08;;;;;;;23.08;6.50;;;;;;;9.10;85.61;102106.13;5108328;28;20048;-61
2022/10/07 07:17:36;;;;;;;55.78;8.70;;;;;;;9.11;86.12;102109.63;5107136;28;20118;-59
2022/10/07 07:20:03;;;;;;;26.23;6.43;;;;;;;9.26;85.61;102110.28;5107079;28;20063;-60
2022/10/07 07:22:30;;;;;;;25.05;6.32;;;;;;;9.27;85.15;102107.53;5105131;28;20097;-60
2022/10/07 07:24:58;;;;;;;17.85;5.60;;;;;;;9.30;84.83;102104.69;5094151;28;20506;-59
2022/10/07 07:27:24;;;;;;;26.38;6.32;;;;;;;9.49;84.68;102098.84;5096025;28;20064;-60
2022/10/07 07:29:51;;;;;;;20.38;5.68;;;;;;;9.53;84.54;102099.47;5101817;28;20096;-59
2022/10/07 07:32:18;;;;;;;20.13;5.30;;;;;;;9.66;83.78;102100.28;5103818;28;20038;-60
2022/10/07 07:34:46;;;;;;;29.13;5.97;;;;;;;9.73;83.09;102098.84;5101262;28;20042;-60
2022/10/07 07:37:19;;;;;;;17.42;5.43;;;;;;;9.75;83.58;102096.94;5095685;28;20062;-59
2022/10/07 07:39:49;;;;;;;19.52;6.57;;;;;;;9.85;83.07;102096.22;5097554;28;20478;-60
2022/10/07 07:42:17;;;;;;;22.70;6.63;;;;;;;9.89;82.36;102089.72;5097260;28;20725;-60
2022/10/07 07:44:43;;;;;;;21.33;5.60;;;;;;;10.03;82.35;102089.53;5101010;28;20073;-60
2022/10/07 07:47:15;;;;;;;26.73;6.57;;;;;;;10.01;81.33;102088.81;5110772;28;20054;-60
2022/10/07 07:49:43;;;;;;;19.65;6.55;;;;;;;10.22;81.60;102096.06;5098358;28;20120;-60
2022/10/07 07:52:15;;;;;;;;;;;;;;;10.21;81.50;102092.56;5076815;27;20047;-59
2022/10/07 07:54:46;;;;;;;23.02;6.10;;;;;;;10.32;81.09;102091.78;5098126;28;20383;-60
2022/10/07 07:57:13;;;;;;;22.80;6.25;;;;;;;10.48;80.28;102099.38;5099497;28;20089;-60
2022/10/07 07:59:40;;;;;;;21.70;6.07;;;;;;;10.70;79.49;102098.53;5099784;28;20043;-59
2022/10/07 08:02:10;;;;;;;28.65;6.55;;;;;;;10.46;79.67;102096.84;5093417;28;20056;-59
2022/10/07 08:04:39;;;;;;;19.75;6.00;;;;;;;10.63;79.79;102095.50;5095491;28;20078;-60
2022/10/07 08:07:07;;;;;;;22.58;6.25;;;;;;;10.73;79.05;102095.63;5105605;28;20063;-60
2022/10/07 08:09:33;;;;;;;24.95;6.22;;;;;;;10.83;78.80;102098.41;5090206;28;20072;-60
2022/10/07 08:12:00;;;;;;;22.73;6.30;;;;;;;10.80;78.59;102096.81;5097620;28;20074;-59
2022/10/07 08:14:27;;;;;;;26.60;6.95;;;;;;;10.99;78.58;102087.38;5089310;28;20056;-59
2022/10/07 08:16:57;;;;;;;21.17;6.30;;;;;;;11.02;78.06;102092.44;5106591;28;20054;-59
2022/10/07 08:19:26;;;;;;;20.42;5.97;;;;;;;11.10;77.63;102082.88;5094330;28;20048;-56
2022/10/07 08:21:53;;;;;;;24.92;6.25;;;;;;;11.17;78.18;102082.38;5091612;28;20147;-57
2022/10/07 08:24:24;;;;;;;25.52;6.15;;;;;;;11.29;nan;102084.88;5103174;28;20052;-57
2022/10/07 08:26:52;;;;;;;21.95;6.25;;;;;;;11.33;78.13;102081.03;5093595;28;20110;-57
2022/10/07 08:29:20;;;;;;;24.45;6.15;;;;;;;11.36;77.99;102074.59;5103789;28;20374;-56
2022/10/07 08:31:48;;;;;;;21.10;5.88;;;;;;;11.46;77.93;102077.31;5092414;28;20339;-60
2022/10/07 08:34:15;;;;;;;20.63;5.75;;;;;;;11.36;77.62;102074.59;5104658;28;20055;-60
2022/10/07 08:36:47;;;;;;;27.23;6.07;;;;;;;11.34;77.98;102074.72;5106213;28;20378;-58
2022/10/07 08:39:15;;;;;;;33.53;6.35;;;;;;;11.45;78.38;102071.16;5095396;28;20562;-61
2022/10/07 08:41:55;;;;;;;22.77;6.07;;;;;;;11.61;78.36;102072.56;5101703;28;20429;-59
2022/10/07 08:44:30;;;;;;;29.42;6.05;;;;;;;11.65;77.79;102068.69;5106792;28;20046;-59
2022/10/07 08:47:37;;;;;;;22.52;6.00;;;;;;;11.76;77.21;102063.28;5100447;28;20047;-60
2022/10/07 08:52:58;;;;;;;23.92;6.22;;;;;;;11.99;76.77;102061.38;5043782;28;20411;-60
2022/10/07 08:55:44;;;;;;;33.40;6.55;;;;;;;12.13;76.64;102052.19;5067620;28;20549;-60
2022/10/07 08:58:47;;;;;;;33.08;6.63;;;;;;;12.20;76.14;102053.34;5074615;28;20482;-60
2022/10/07 09:04:22;;;;;;;32.28;6.47;;;;;;;12.43;74.35;102051.38;5108181;27;20369;-59
2022/10/07 09:06:57;;;;;;;24.67;6.03;;;;;;;12.46;74.60;102047.56;5117273;28;20573;-59
2022/10/07 09:09:31;;;;;;;24.65;5.85;;;;;;;12.66;74.70;102038.69;5115908;28;20046;-60
2022/10/07 09:12:02;;;;;;;27.00;6.15;;;;;;;12.80;74.85;102041.94;5113543;28;20445;-60
2022/10/07 09:14:36;;;;;;;24.30;5.85;;;;;;;13.22;73.69;102028.38;5119502;27;20048;-60
2022/10/07 09:17:11;;;;;;;28.95;6.53;;;;;;;13.81;70.46;102037.22;5083007;28;20051;-60
2022/10/07 09:19:44;;;;;;;22.63;5.55;;;;;;;14.68;66.49;102028.03;5122592;28;20038;-59
2022/10/07 09:25:01;;;;;;;20.10;5.32;;;;;;;16.83;58.59;102023.19;5078077;28;20409;-60
2022/10/07 09:27:29;;;;;;;21.48;5.50;;;;;;;17.64;56.19;102018.84;5072658;28;20075;-60
2022/10/07 09:29:55;;;;;;;25.80;5.57;;;;;;;18.68;53.32;102022.41;5067410;28;20098;-60
2022/10/07 09:32:22;;;;;;;22.05;5.57;;;;;;;19.35;50.48;102020.97;5077801;28;20112;-61
2022/10/07 09:34:51;;;;;;;30.00;5.95;;;;;;;20.20;48.61;102014.41;5057581;28;20525;-60
2022/10/07 09:37:22;;;;;;;23.85;5.57;;;;;;;20.64;47.93;102020.78;5067759;28;20083;-60
2022/10/07 09:39:51;;;;;;;22.27;5.72;;;;;;;21.26;45.95;102008.53;5062862;28;20508;-61
2022/10/07 09:42:29;;;;;;;27.30;6.28;;;;;;;21.77;44.40;102004.78;5065052;28;20122;-60
2022/10/07 09:44:59;;;;;;;25.85;5.75;;;;;;;22.32;43.37;101997.63;5081603;28;20045;-60
2022/10/07 09:47:34;;;;;;;24.45;6.00;;;;;;;23.40;41.46;102002.22;5060439;28;20059;-60
2022/10/07 09:50:01;;;;;;;32.33;5.82;;;;;;;23.88;39.00;102001.97;5069700;28;20044;-60
2022/10/07 09:52:30;;;;;;;25.73;5.40;;;;;;;24.97;37.69;102006.72;5018124;28;20036;-62
2022/10/07 09:55:30;;;;;;;25.58;5.07;;;;;;;24.66;36.28;102006.47;5076647;28;20044;-60
2022/10/07 09:58:00;;;;;;;22.75;5.03;;;;;;;24.97;34.94;102004.00;5058822;28;20139;-60
2022/10/07 10:00:28;;;;;;;20.65;4.93;;;;;;;25.56;34.90;102002.69;5074746;28;20098;-60
2022/10/07 10:03:02;;;;;;;22.48;4.57;;;;;;;25.67;33.62;101996.53;5063030;28;20045;-63
2022/10/07 10:05:33;;;;;;;24.55;4.50;;;;;;;26.31;33.46;101998.13;5068609;28;20056;-60
2022/10/07 10:08:18;;;;;;;23.85;4.50;;;;;;;26.29;33.63;101997.53;5054926;28;20051;-60
2022/10/07 10:10:51;;;;;;;27.50;4.68;;;;;;;26.54;32.69;101989.22;5057173;28;20472;-46
2022/10/07 10:13:26;;;;;;;18.30;5.68;;;;;;;26.63;31.98;101987.88;5067049;28;20040;-60
2022/10/07 10:15:53;;;;;;;24.90;4.43;;;;;;;26.60;32.52;101986.44;5060065;28;20145;-60
2022/10/07 10:18:38;;;;;;;20.95;4.50;;;;;;;26.88;32.33;101978.72;5066525;28;20056;-61
2022/10/07 10:21:28;;;;;;;19.85;4.15;;;;;;;27.51;31.42;101972.63;5059485;28;20059;-61
2022/10/07 10:23:58;;;;;;;20.80;4.18;;;;;;;28.29;30.50;101973.19;5060794;28;20041;-60
2022/10/07 10:27:04;;;;;;;25.17;4.10;;;;;;;28.57;29.58;101974.28;5055050;28;20068;-61
2022/10/07 10:29:44;;;;;;;18.67;4.60;;;;;;;26.68;31.51;101957.25;5065737;28;20056;-60
2022/10/07 10:32:30;;;;;;;20.80;4.40;;;;;;;26.39;32.17;101955.09;5062287;28;20043;-62
2022/10/07 10:35:07;;;;;;;25.92;4.78;;;;;;;27.14;30.94;101959.22;5056589;28;20048;-60
2022/10/07 10:37:56;;;;;;;23.15;5.13;;;;;;;28.08;30.15;101946.59;5049692;28;20604;-60
2022/10/07 10:40:38;;;;;;;18.08;3.97;;;;;;;26.65;31.21;101941.38;5046277;28;20041;-60
2022/10/07 10:43:34;;;;;;;20.42;4.30;;;;;;;26.81;32.52;101936.09;5053330;28;20048;-60
2022/10/07 10:46:29;;;;;;;28.95;4.72;;;;;;;23.48;38.14;101923.47;5044149;28;20041;-61
2022/10/07 10:49:18;;;;;;;26.15;3.90;;;;;;;23.71;37.98;101927.59;5042244;28;20083;-62
2022/10/07 10:52:04;;;;;;;21.98;3.97;;;;;;;26.18;33.78;101923.81;5009875;28;20052;-61
2022/10/07 10:54:56;;;;;;;29.17;3.80;;;;;;;25.31;33.52;101913.09;5052659;28;21446;-60
2022/10/07 10:57:50;;;;;;;25.13;3.60;;;;;;;25.62;33.11;101905.88;5048166;28;20045;-61
2022/10/07 11:00:19;;;;;;;24.75;3.83;;;;;;;25.96;32.09;101904.44;5043754;28;20042;-61
2022/10/07 11:03:26;;;;;;;23.83;3.78;;;;;;;26.59;31.36;101900.41;5015418;28;20037;-61
2022/10/07 11:05:55;;;;;;;21.75;3.60;;;;;;;24.69;33.56;101897.53;5049391;28;20049;-61
2022/10/07 11:08:30;;;;;;;21.15;3.63;;;;;;;25.29;32.54;101890.78;5034028;28;20087;-61
2022/10/07 11:11:05;;;;;;;26.10;3.90;;;;;;;25.60;32.42;101887.09;5050732;28;20443;-61
2022/10/07 11:13:57;;;;;;;28.67;3.70;;;;;;;25.22;33.53;101879.94;5032191;28;20060;-62
2022/10/07 11:16:49;;;;;;;25.02;3.33;;;;;;;23.56;34.48;101882.63;5050171;28;20562;-61
2022/10/07 11:19:27;;;;;;;23.40;3.10;;;;;;;23.53;35.96;101868.69;5047728;28;20063;-61
2022/10/07 11:21:57;;;;;;;23.23;3.00;;;;;;;22.62;36.58;101872.94;5037718;28;20123;-61
2022/10/07 11:27:17;;;;;;;16.80;2.83;;;;;;;23.48;35.26;101860.38;5088887;27;20434;-61
2022/10/07 11:32:37;;;;;;;23.00;3.00;;;;;;;22.70;37.11;101845.69;5031771;28;20489;-60
2022/10/07 11:35:30;;;;;;;24.88;3.28;;;;;;;21.75;39.25;101834.84;5054130;28;20403;-60
2022/10/07 11:38:18;;;;;;;16.10;2.67;;;;;;;22.49;37.32;101841.31;5025562;28;20558;-60
2022/10/07 11:40:57;;;;;;;18.95;3.22;;;;;;;22.23;38.15;101834.78;5045972;28;20048;-60
2022/10/07 11:43:37;;;;;;;24.70;2.83;;;;;;;21.63;38.45;101831.91;5029974;28;20044;-60
2022/10/07 11:46:14;;;;;;;22.25;3.35;;;;;;;21.35;39.53;101825.72;5038731;28;20084;-60
2022/10/07 11:48:48;;;;;;;19.77;2.88;;;;;;;22.02;38.81;101814.16;5026790;28;20136;-60
2022/10/07 11:51:23;;;;;;;26.45;3.20;;;;;;;21.65;38.80;101821.75;5043001;28;20043;-60
2022/10/07 11:53:54;;;;;;;16.48;2.70;;;;;;;21.64;39.89;101811.97;5003642;28;20068;-60
2022/10/07 11:56:24;;;;;;;20.80;2.97;;;;;;;21.36;39.70;101801.22;5045975;28;20055;-60
2022/10/07 11:59:00;;;;;;;26.77;3.03;;;;;;;21.17;40.19;101789.28;5024872;28;20048;-61
2022/10/07 12:01:39;;;;;;;30.65;3.40;;;;;;;21.39;40.20;101783.78;5044694;28;20486;-60
2022/10/07 12:04:24;;;;;;;19.77;3.33;;;;;;;21.53;41.14;101772.06;5020075;28;20053;-60
2022/10/07 12:07:31;;;;;;;23.63;3.15;;;;;;;21.04;39.83;101773.03;5035573;28;20110;-60
2022/10/07 12:15:34;;;;;;;23.17;3.00;;;;;;;20.99;39.70;101770.09;5092760;27;20405;-61
2022/10/07 12:18:09;;;;;;;27.20;3.55;;;;;;;20.89;40.83;101757.78;5052180;28;20756;-62
2022/10/07 12:26:19;;;;;;;22.13;3.22;;;;;;;20.88;40.38;101742.66;5160060;27;20176;-61
2022/10/07 12:28:47;;;;;;;23.27;3.05;;;;;;;21.45;39.23;101731.75;5115080;27;20047;-61